createdAt,value
2019-01-03T00:00:04.669Z,-2
2019-01-03T00:05:30.930Z,-2.1
2019-01-03T00:10:57.671Z,-2.1
2019-01-03T00:16:23.552Z,-2.1
2019-01-03T00:21:49.602Z,-2.2
2019-01-03T00:27:16.036Z,-2.2
2019-01-03T00:32:42.106Z,-2.3
2019-01-03T00:38:09.544Z,-2.3
2019-01-03T00:43:35.567Z,-2.3
2019-01-03T00:49:02.797Z,-2.3
2019-01-03T00:54:30.005Z,-2.4
2019-01-03T00:59:57.263Z,-2.5
2019-01-03T01:05:24.487Z,-2.5
2019-01-03T01:16:19.243Z,-2.5
2019-01-03T01:21:45.199Z,-2.5
2019-01-03T01:27:11.431Z,-2.5
2019-01-03T01:32:38.607Z,-2.6
2019-01-03T01:38:05.955Z,-2.6
2019-01-03T01:43:33.063Z,-2.6
2019-01-03T01:49:00.249Z,-2.6
2019-01-03T01:54:27.489Z,-2.6
2019-01-03T01:59:53.658Z,-2.7
2019-01-03T02:05:20.980Z,-2.7
2019-01-03T02:10:48.284Z,-2.8
2019-01-03T02:16:14.262Z,-2.8
2019-01-03T02:21:41.604Z,-2.8
2019-01-03T02:27:07.633Z,-2.8
2019-01-03T02:32:34.907Z,-2.8
2019-01-03T02:38:01.190Z,-2.8
2019-01-03T02:43:27.206Z,-2.9
2019-01-03T02:48:53.356Z,-2.9
2019-01-03T02:59:47.865Z,-3
2019-01-03T03:05:13.934Z,-3
2019-01-03T03:10:41.123Z,-3.1
2019-01-03T03:16:08.412Z,-3.1
2019-01-03T03:21:34.994Z,-3.2
2019-01-03T03:27:00.593Z,-3.3
2019-01-03T03:32:26.789Z,-3.3
2019-01-03T03:37:53.334Z,-3.3
2019-01-03T03:43:19.095Z,-3.3
2019-01-03T03:48:46.356Z,-3.3
2019-01-03T03:54:13.407Z,-3.3
2019-01-03T03:59:40.560Z,-3.4
2019-01-03T04:05:07.718Z,-3.4
2019-01-03T04:10:35.095Z,-3.4
2019-01-03T04:16:01.046Z,-3.4
2019-01-03T04:21:27.175Z,-3.4
2019-01-03T04:26:53.299Z,-3.5
2019-01-03T04:32:19.449Z,-3.5
2019-01-03T04:37:46.612Z,-3.5
2019-01-03T04:43:12.816Z,-3.6
2019-01-03T04:48:38.850Z,-3.6
2019-01-03T04:54:05.022Z,-3.6
2019-01-03T04:59:32.540Z,-3.6
2019-01-03T05:04:58.279Z,-3.6
2019-01-03T05:10:24.386Z,-3.6
2019-01-03T05:15:50.576Z,-3.6
2019-01-03T05:21:17.934Z,-3.6
2019-01-03T05:26:43.793Z,-3.7
2019-01-03T05:32:10.896Z,-3.8
2019-01-03T05:37:38.138Z,-3.8
2019-01-03T05:43:05.153Z,-3.8
2019-01-03T05:48:31.290Z,-3.7
2019-01-03T05:53:58.385Z,-3.7
2019-01-03T05:59:24.572Z,-3.7
2019-01-03T06:04:51.016Z,-3.6
2019-01-03T06:10:16.792Z,-3.6
2019-01-03T06:15:43.893Z,-3.6
2019-01-03T06:21:11.011Z,-3.6
2019-01-03T06:26:38.186Z,-3.6
2019-01-03T06:32:04.432Z,-3.6
2019-01-03T06:37:31.479Z,-3.7
2019-01-03T06:42:58.681Z,-3.7
2019-01-03T06:48:25.926Z,-3.7
2019-01-03T06:53:53.019Z,-3.7
2019-01-03T06:59:19.126Z,-3.8
2019-01-03T07:04:45.246Z,-3.8
2019-01-03T07:10:11.401Z,-3.8
2019-01-03T07:15:38.514Z,-3.8
2019-01-03T07:21:05.623Z,-3.9
2019-01-03T07:26:37.671Z,-3.9
2019-01-03T07:31:58.934Z,-4
2019-01-03T07:37:25.932Z,-4
2019-01-03T07:42:52.047Z,-4
2019-01-03T07:48:18.179Z,-3.9
2019-01-03T07:53:44.270Z,-3.9
2019-01-03T07:59:11.368Z,-3.9
2019-01-03T08:04:38.472Z,-3.9
2019-01-03T08:10:04.619Z,-3.9
2019-01-03T08:15:30.712Z,-3.9
2019-01-03T08:20:57.809Z,-3.9
2019-01-03T08:26:24.969Z,-3.9
2019-01-03T08:31:52.070Z,-3.9
2019-01-03T08:37:18.362Z,-3.8
2019-01-03T08:42:45.441Z,-3.8
2019-01-03T08:48:12.468Z,-3.8
2019-01-03T08:53:38.837Z,-3.7
2019-01-03T08:59:05.668Z,-3.7
2019-01-03T09:04:31.796Z,-3.7
2019-01-03T09:09:58.928Z,-3.6
2019-01-03T09:15:25.078Z,-3.5
2019-01-03T09:20:52.209Z,-3.5
2019-01-03T09:26:19.347Z,-3.4
2019-01-03T09:31:45.519Z,-3.3
2019-01-03T09:37:11.645Z,-3.2
2019-01-03T09:42:38.815Z,-3.1
2019-01-03T09:48:05.071Z,-2.9
2019-01-03T09:53:32.289Z,-2.8
2019-01-03T09:58:58.354Z,-2.6
2019-01-03T10:04:24.604Z,-2.3
2019-01-03T10:09:50.905Z,-2.2
2019-01-03T10:15:18.076Z,-2
2019-01-03T10:20:45.907Z,-1.8
2019-01-03T10:26:11.615Z,-1.6
2019-01-03T10:31:37.889Z,-1.4
2019-01-03T10:37:05.251Z,-1.1
2019-01-03T10:42:32.586Z,-1
2019-01-03T10:47:59.843Z,-0.8
2019-01-03T10:53:26.187Z,-0.8
2019-01-03T10:58:53.560Z,-0.8
2019-01-03T11:04:20.842Z,-0.7
2019-01-03T11:09:47.178Z,-0.7
2019-01-03T11:15:13.512Z,-0.6
2019-01-03T11:20:40.932Z,-0.6
2019-01-03T11:26:10.640Z,-0.5
2019-01-03T11:31:33.539Z,-0.3
2019-01-03T11:36:59.899Z,-0.2
2019-01-03T11:42:26.272Z,-0.1
2019-01-03T11:47:52.614Z,0
2019-01-03T11:53:20.025Z,0
2019-01-03T11:58:47.439Z,0
2019-01-03T12:04:13.790Z,0
2019-01-03T12:09:40.168Z,0.1
2019-01-03T12:15:06.499Z,0.1
2019-01-03T12:20:55.965Z,0.1
2019-01-03T12:26:26.371Z,0.2
2019-01-03T12:31:27.679Z,0.3
2019-01-03T12:36:57.101Z,0.3
2019-01-03T12:42:46.096Z,0.4
2019-01-03T12:47:47.890Z,0.4
2019-01-03T12:53:14.328Z,0.4
2019-01-03T12:58:57.590Z,0.4
2019-01-03T13:04:23.127Z,0.4
2019-01-03T13:09:34.515Z,0.5
2019-01-03T13:15:03.384Z,0.5
2019-01-03T13:21:04.420Z,0.5
2019-01-03T13:25:56.676Z,0.4
2019-01-03T13:31:53.234Z,0.4
2019-01-03T13:36:53.335Z,0.3
2019-01-03T13:42:15.902Z,0.3
2019-01-03T13:47:43.258Z,0.2
2019-01-03T13:53:09.668Z,0.2
2019-01-03T13:58:37.023Z,0.1
2019-01-03T14:04:04.410Z,0.1
2019-01-03T14:09:30.855Z,0
2019-01-03T14:14:57.159Z,0
2019-01-03T14:20:23.548Z,-0.1
2019-01-03T14:25:50.936Z,-0.1
2019-01-03T14:31:18.260Z,-0.1
2019-01-03T14:36:45.662Z,-0.1
2019-01-03T14:42:12.018Z,-0.2
2019-01-03T14:47:39.382Z,-0.2
2019-01-03T14:53:06.794Z,-0.3
2019-01-03T14:58:33.299Z,-0.3
2019-01-03T15:03:59.506Z,-0.4
2019-01-03T15:09:26.872Z,-0.4
2019-01-03T15:14:53.167Z,-0.5
2019-01-03T15:20:19.500Z,-0.6
2019-01-03T15:25:46.832Z,-0.6
2019-01-03T15:31:13.176Z,-0.7
2019-01-03T15:36:39.499Z,-0.8
2019-01-03T15:42:06.867Z,-0.8
2019-01-03T15:47:34.161Z,-0.9
2019-01-03T15:53:01.463Z,-1
2019-01-03T15:58:28.782Z,-1.1
2019-01-03T16:03:55.025Z,-1.1
2019-01-03T16:09:21.333Z,-1.2
2019-01-03T16:14:48.626Z,-1.3
2019-01-03T16:20:15.914Z,-1.3
2019-01-03T16:25:43.162Z,-1.4
2019-01-03T16:31:09.414Z,-1.5
2019-01-03T16:36:35.699Z,-1.5
2019-01-03T16:42:03.076Z,-1.5
2019-01-03T16:47:29.227Z,-1.4
2019-01-03T16:52:56.540Z,-1.4
2019-01-03T16:58:23.842Z,-1.3
2019-01-03T17:03:51.085Z,-1.3
2019-01-03T17:09:17.833Z,-1.4
2019-01-03T17:14:43.640Z,-1.4
2019-01-03T17:20:10.926Z,-1.4
2019-01-03T17:25:37.181Z,-1.4
2019-01-03T17:31:04.467Z,-1.5
2019-01-03T17:36:30.742Z,-1.4
2019-01-03T17:41:57.281Z,-1.4
2019-01-03T17:47:24.290Z,-1.4
2019-01-03T17:52:50.980Z,-1.4
2019-01-03T17:58:16.935Z,-1.4
2019-01-03T18:03:44.140Z,-1.4
2019-01-03T18:09:10.448Z,-1.4
2019-01-03T18:14:37.015Z,-1.4
2019-01-03T18:20:03.962Z,-1.4
2019-01-03T18:25:30.759Z,-1.5
2019-01-03T18:30:57.510Z,-1.5
2019-01-03T18:36:24.775Z,-1.5
2019-01-03T18:41:51.068Z,-1.5
2019-01-03T18:47:17.279Z,-1.6
2019-01-03T18:52:44.563Z,-1.6
2019-01-03T18:58:10.821Z,-1.6
2019-01-03T19:03:38.068Z,-1.7
2019-01-03T19:09:05.205Z,-1.7
2019-01-03T19:14:31.598Z,-1.7
2019-01-03T19:19:57.806Z,-1.7
2019-01-03T19:25:24.346Z,-1.8
2019-01-03T19:30:51.393Z,-1.8
2019-01-03T19:36:17.553Z,-1.8
2019-01-03T19:41:43.760Z,-1.9
2019-01-03T19:47:10.013Z,-1.9
2019-01-03T19:52:36.233Z,-1.9
2019-01-03T19:58:03.515Z,-1.9
2019-01-03T20:03:29.703Z,-1.9
2019-01-03T20:08:56.014Z,-1.9
2019-01-03T20:14:22.202Z,-1.9
2019-01-03T20:19:49.474Z,-1.9
2019-01-03T20:25:16.726Z,-1.9
2019-01-03T20:30:43.938Z,-1.9
2019-01-03T20:36:11.150Z,-1.9
2019-01-03T20:41:37.466Z,-1.9
2019-01-03T20:47:04.659Z,-1.9
2019-01-03T20:52:30.917Z,-1.9
2019-01-03T20:57:58.275Z,-1.9
2019-01-03T21:03:25.442Z,-1.9
2019-01-03T21:08:51.759Z,-1.9
2019-01-03T21:14:17.937Z,-1.9
2019-01-03T21:19:45.157Z,-1.9
2019-01-03T21:25:13.638Z,-1.9
2019-01-03T21:30:39.622Z,-1.9
2019-01-03T21:36:06.847Z,-1.9
2019-01-03T21:41:34.131Z,-1.8
2019-01-03T21:47:01.434Z,-1.8
2019-01-03T21:52:27.632Z,-1.8
2019-01-03T21:57:54.814Z,-1.8
2019-01-03T22:03:22.101Z,-1.8
2019-01-03T22:08:48.362Z,-1.8
2019-01-03T22:14:15.547Z,-1.8
2019-01-03T22:19:41.815Z,-1.8
2019-01-03T22:25:09.055Z,-1.8
2019-01-03T22:30:35.302Z,-1.8
2019-01-03T22:36:02.804Z,-1.8
2019-01-03T22:41:28.775Z,-1.8
2019-01-03T22:46:55.043Z,-1.7
2019-01-03T22:52:21.284Z,-1.7
2019-01-03T22:57:53.518Z,-1.6
2019-01-03T23:03:14.817Z,-1.5
2019-01-03T23:08:42.027Z,-1.4
2019-01-03T23:14:08.327Z,-1.3
2019-01-03T23:19:35.620Z,-1.2
2019-01-03T23:25:02.941Z,-1.2
2019-01-03T23:30:29.247Z,-1
2019-01-03T23:35:56.465Z,-0.9
2019-01-03T23:41:22.781Z,-0.8
2019-01-03T23:46:50.118Z,-0.6
2019-01-03T23:52:16.465Z,-0.5
2019-01-03T23:57:42.742Z,-0.4
